Time;durP1;ratioP1;P1;durP2;ratioP2;P2;SDS_P1;SDS_P2;PMS_P1;PMS_P2;Temp;Humidity;BMP_temperature;BMP_pressure;BME280_temperature;BME280_humidity;BME280_pressure;Samples;Min_cycle;Max_cycle;Signal;HPM_P1;HPM_P2
2022/01/30 00:02:04;;;;;;;6.80;2.80;;;9.40;93.50;;;;;;908544;155;27501;-81
2022/01/30 00:04:30;;;;;;;7.33;2.73;;;9.40;93.60;;;;;;904126;155;27394;-78
2022/01/30 00:06:56;;;;;;;7.67;2.77;;;9.30;93.60;;;;;;904271;155;27408;-81
2022/01/30 00:09:23;;;;;;;8.37;2.97;;;9.30;93.70;;;;;;906227;155;27358;-81
2022/01/30 00:11:55;;;;;;;7.77;2.60;;;9.40;93.70;;;;;;907426;155;27377;-81
2022/01/30 00:14:18;;;;;;;9.27;2.67;;;9.40;93.70;;;;;;906050;155;27306;-80
2022/01/30 00:16:43;;;;;;;11.23;3.00;;;9.40;93.70;;;;;;907369;155;27376;-78
2022/01/30 00:19:20;;;;;;;8.03;3.10;;;9.40;93.70;;;;;;906196;155;27964;-80
2022/01/30 00:21:47;;;;;;;6.47;2.60;;;9.50;93.80;;;;;;906453;155;27372;-78
2022/01/30 00:24:13;;;;;;;8.07;2.80;;;9.50;93.80;;;;;;906185;155;27495;-81
2022/01/30 00:26:37;;;;;;;8.07;2.80;;;9.60;93.90;;;;;;906433;155;27316;-80
2022/01/30 00:29:01;;;;;;;7.93;3.13;;;9.60;93.80;;;;;;906299;155;27396;-77
2022/01/30 00:31:28;;;;;;;10.20;3.23;;;9.70;93.80;;;;;;905409;155;27571;-81
2022/01/30 00:33:54;;;;;;;13.03;3.40;;;9.80;93.80;;;;;;907001;155;27358;-80
2022/01/30 00:36:21;;;;;;;8.67;3.13;;;9.80;93.70;;;;;;906529;155;27464;-80
2022/01/30 00:38:48;;;;;;;10.03;2.87;;;9.90;93.60;;;;;;906691;155;27358;-80
2022/01/30 00:41:14;;;;;;;6.70;2.90;;;10.00;93.50;;;;;;906505;155;27397;-77
2022/01/30 00:43:41;;;;;;;13.03;3.20;;;10.10;93.40;;;;;;908575;155;27378;-81
2022/01/30 00:46:07;;;;;;;6.70;2.80;;;10.20;93.30;;;;;;905191;155;27335;-81
2022/01/30 00:48:34;;;;;;;10.87;3.37;;;10.20;93.10;;;;;;906039;155;27456;-82
2022/01/30 00:51:00;;;;;;;10.13;3.10;;;10.30;92.90;;;;;;907276;155;27418;-81
2022/01/30 00:53:27;;;;;;;9.50;2.60;;;10.40;92.80;;;;;;907080;155;27326;-77
2022/01/30 00:55:54;;;;;;;10.63;3.27;;;10.50;92.70;;;;;;907311;155;27506;-81
2022/01/30 00:58:20;;;;;;;9.07;3.13;;;10.50;92.60;;;;;;904873;155;28472;-82
2022/01/30 01:00:47;;;;;;;10.23;3.13;;;10.60;92.40;;;;;;906626;155;27471;-81
2022/01/30 01:03:13;;;;;;;6.10;3.03;;;10.60;92.30;;;;;;920406;152;27392;-80
2022/01/30 01:05:40;;;;;;;8.60;3.17;;;10.70;92.20;;;;;;921198;152;27336;-80
2022/01/30 01:08:16;;;;;;;10.50;4.03;;;10.70;92.00;;;;;;922001;152;27399;-82
2022/01/30 01:10:46;;;;;;;7.77;2.77;;;10.80;92.00;;;;;;919921;152;27433;-81
2022/01/30 01:20:59;;;;;;;8.77;2.63;;;10.90;91.50;;;;;;922860;152;27591;-77
2022/01/30 01:23:50;;;;;;;7.17;2.63;;;10.90;91.10;;;;;;921927;152;28751;-81
2022/01/30 01:26:15;;;;;;;8.90;2.97;;;10.90;90.90;;;;;;923622;152;27366;-81
2022/01/30 01:28:42;;;;;;;11.20;3.07;;;10.90;90.70;;;;;;922542;152;27765;-80
2022/01/30 01:31:09;;;;;;;8.70;3.07;;;10.90;90.60;;;;;;922220;152;27316;-77
2022/01/30 01:36:11;;;;;;;7.73;2.70;;;10.90;90.20;;;;;;920332;152;27420;-81
2022/01/30 01:38:37;;;;;;;12.63;3.13;;;10.90;90.20;;;;;;922824;152;27412;-81
2022/01/30 01:41:04;;;;;;;5.90;2.83;;;10.90;90.00;;;;;;921474;152;27383;-81
2022/01/30 01:43:31;;;;;;;7.20;2.67;;;10.90;89.90;;;;;;920602;152;27394;-80
2022/01/30 01:45:58;;;;;;;6.77;2.87;;;10.90;89.60;;;;;;921065;152;27441;-81
2022/01/30 01:48:23;;;;;;;8.40;3.37;;;10.90;89.40;;;;;;921265;152;27520;-81
2022/01/30 01:51:03;;;;;;;9.23;2.97;;;10.90;88.80;;;;;;919319;152;27459;-81
2022/01/30 01:53:22;;;;;;;10.50;2.43;;;10.90;88.60;;;;;;919652;152;27315;-80
2022/01/30 01:55:49;;;;;;;6.13;2.73;;;10.90;88.30;;;;;;919942;152;27412;-81
2022/01/30 01:58:15;;;;;;;7.83;2.80;;;10.90;87.80;;;;;;921242;152;27951;-80
2022/01/30 02:00:42;;;;;;;4.27;2.83;;;10.90;86.80;;;;;;921301;152;27350;-81
2022/01/30 02:03:08;;;;;;;7.17;2.60;;;10.90;87.20;;;;;;920842;152;27376;-80
2022/01/30 02:05:36;;;;;;;9.13;2.50;;;10.90;86.60;;;;;;920313;152;27476;-79
2022/01/30 02:08:48;;;;;;;6.80;2.80;;;10.90;86.30;;;;;;920565;152;27387;-82
2022/01/30 02:10:39;;;;;;;7.60;2.87;;;10.80;86.10;;;;;;912627;152;27422;-80
2022/01/30 02:13:12;;;;;;;4.87;2.73;;;10.90;85.90;;;;;;922446;152;27472;-82
2022/01/30 02:26:05;;;;;;;7.53;2.67;;;10.80;85.50;;;;;;920897;152;27389;-82
2022/01/30 02:28:33;;;;;;;6.73;2.60;;;10.80;85.60;;;;;;921170;152;27490;-81
2022/01/30 02:31:14;;;;;;;4.63;2.33;;;10.80;85.60;;;;;;919767;152;27375;-81
2022/01/30 02:33:36;;;;;;;9.07;2.50;;;10.80;85.60;;;;;;922267;152;27439;-82
2022/01/30 02:36:03;;;;;;;5.07;2.50;;;10.80;85.60;;;;;;922596;152;27472;-81
2022/01/30 02:38:29;;;;;;;8.70;2.40;;;10.80;85.70;;;;;;920566;152;27373;-81
2022/01/30 02:40:57;;;;;;;5.53;2.17;;;10.80;85.40;;;;;;920398;152;27312;-79
2022/01/30 02:43:28;;;;;;;7.43;2.80;;;10.80;85.20;;;;;;920083;152;27425;-79
2022/01/30 02:46:03;;;;;;;5.87;2.50;;;10.90;85.20;;;;;;921248;152;27406;-79
2022/01/30 02:48:19;;;;;;;3.30;2.60;;;10.80;85.00;;;;;;920923;152;27483;-82
2022/01/30 02:50:56;;;;;;;6.30;2.40;;;10.90;84.60;;;;;;922816;152;27496;-83
2022/01/30 02:53:17;;;;;;;7.50;2.80;;;10.90;83.90;;;;;;920807;152;27485;-81
2022/01/30 02:55:44;;;;;;;6.77;2.60;;;10.90;83.10;;;;;;921339;152;27375;-80
2022/01/30 02:58:30;;;;;;;11.43;2.97;;;10.90;82.60;;;;;;921950;152;27413;-80
2022/01/30 03:00:57;;;;;;;8.17;2.77;;;11.00;82.30;;;;;;968498;147;27279;-81
2022/01/30 03:03:23;;;;;;;7.10;2.37;;;11.00;81.70;;;;;;969275;144;27289;-80
2022/01/30 03:05:50;;;;;;;4.87;2.20;;;10.90;81.60;;;;;;968439;145;27336;-81
2022/01/30 03:08:17;;;;;;;7.33;2.70;;;10.90;81.30;;;;;;968746;144;27455;-82
2022/01/30 03:10:43;;;;;;;6.47;2.30;;;11.00;81.10;;;;;;967914;144;27199;-83
2022/01/30 03:13:10;;;;;;;6.50;2.20;;;11.00;80.70;;;;;;967803;144;27276;-82
2022/01/30 03:15:36;;;;;;;7.03;2.70;;;11.00;80.60;;;;;;966831;144;27341;-80
2022/01/30 03:18:03;;;;;;;6.37;2.13;;;11.00;80.40;;;;;;967041;144;27296;-78
2022/01/30 03:20:30;;;;;;;7.27;2.13;;;11.00;80.00;;;;;;968593;144;27321;-81
2022/01/30 03:22:58;;;;;;;7.57;2.37;;;11.00;79.80;;;;;;966143;144;27335;-80
2022/01/30 03:25:23;;;;;;;4.93;2.40;;;11.00;79.50;;;;;;967216;144;27343;-76
2022/01/30 03:27:52;;;;;;;7.73;3.07;;;11.00;79.20;;;;;;968639;142;27378;-78
2022/01/30 03:30:23;;;;;;;7.30;2.43;;;11.00;78.80;;;;;;968823;144;27422;-79
2022/01/30 03:32:43;;;;;;;7.30;2.20;;;11.00;78.40;;;;;;969702;144;27479;-79
2022/01/30 03:35:09;;;;;;;6.90;2.27;;;11.00;77.80;;;;;;969055;144;28674;-78
2022/01/30 03:37:36;;;;;;;7.47;2.57;;;10.90;77.70;;;;;;970285;144;27415;-79
2022/01/30 03:40:02;;;;;;;7.67;2.77;;;10.90;77.50;;;;;;967213;144;27850;-78
2022/01/30 03:42:29;;;;;;;4.73;2.33;;;10.90;77.50;;;;;;967866;144;27417;-78
2022/01/30 03:44:55;;;;;;;4.77;2.03;;;10.80;77.30;;;;;;968678;144;27362;-77
2022/01/30 03:47:24;;;;;;;6.67;2.40;;;10.80;77.20;;;;;;972516;144;27357;-78
2022/01/30 03:49:49;;;;;;;10.03;2.73;;;10.80;77.10;;;;;;972436;144;27380;-78
2022/01/30 03:52:16;;;;;;;5.97;2.33;;;10.80;76.80;;;;;;971513;144;27427;-78
2022/01/30 03:54:42;;;;;;;8.63;2.77;;;10.70;76.70;;;;;;968474;144;27340;-78
2022/01/30 03:57:08;;;;;;;8.80;2.93;;;10.70;76.60;;;;;;971345;144;27354;-78
2022/01/30 03:59:35;;;;;;;7.93;2.37;;;10.60;76.50;;;;;;966248;144;27495;-79
2022/01/30 04:02:02;;;;;;;9.23;2.83;;;10.60;76.10;;;;;;957997;146;27882;-79
2022/01/30 04:04:28;;;;;;;7.33;3.23;;;10.60;75.10;;;;;;958620;145;27343;-79
2022/01/30 04:06:58;;;;;;;4.10;2.10;;;10.50;75.60;;;;;;960922;146;27347;-78
2022/01/30 04:09:24;;;;;;;7.47;2.37;;;10.50;75.70;;;;;;957941;146;27355;-79
2022/01/30 04:11:51;;;;;;;6.83;3.00;;;10.40;75.60;;;;;;957042;146;27454;-79
2022/01/30 04:14:17;;;;;;;5.03;2.30;;;10.40;75.70;;;;;;958168;146;27494;-79
2022/01/30 04:16:44;;;;;;;7.10;2.77;;;10.30;75.40;;;;;;958852;146;27324;-78
2022/01/30 04:19:10;;;;;;;7.00;2.57;;;10.30;75.20;;;;;;958918;146;27283;-78
2022/01/30 04:21:37;;;;;;;10.30;2.87;;;10.20;75.20;;;;;;957342;146;27491;-78
2022/01/30 04:24:04;;;;;;;6.83;2.60;;;10.20;75.30;;;;;;958588;146;27370;-79
2022/01/30 04:26:30;;;;;;;9.70;2.90;;;10.10;75.40;;;;;;958176;146;27348;-79
2022/01/30 04:28:57;;;;;;;7.20;2.60;;;10.10;75.70;;;;;;957847;145;27337;-79
2022/01/30 04:31:23;;;;;;;7.17;2.60;;;10.10;75.80;;;;;;959500;146;27311;-79
2022/01/30 04:33:50;;;;;;;7.93;2.40;;;10.10;76.00;;;;;;960646;146;27431;-78
2022/01/30 04:36:22;;;;;;;5.60;2.40;;;10.10;76.00;;;;;;959751;145;27455;-79
2022/01/30 04:38:57;;;;;;;5.70;2.57;;;10.10;75.90;;;;;;959663;145;27385;-78
2022/01/30 05:00:08;;;;;;;8.30;2.80;;;9.90;74.00;;;;;;905848;146;27286;-78
2022/01/30 05:07:42;;;;;;;5.60;2.17;;;9.80;73.60;;;;;;954535;146;27383;-79
2022/01/30 05:10:08;;;;;;;6.33;2.43;;;9.70;73.60;;;;;;952500;146;27368;-79
2022/01/30 05:12:44;;;;;;;8.37;3.00;;;9.60;73.60;;;;;;919881;152;27385;-78
2022/01/30 05:15:01;;;;;;;12.83;2.67;;;9.60;73.50;;;;;;953736;146;27429;-78
2022/01/30 05:17:28;;;;;;;7.00;2.80;;;9.60;73.70;;;;;;956371;146;27368;-79
2022/01/30 05:19:54;;;;;;;9.07;2.57;;;9.50;73.60;;;;;;955312;146;27357;-78
2022/01/30 05:22:21;;;;;;;6.83;2.43;;;9.50;73.70;;;;;;952696;146;27351;-78
2022/01/30 05:24:48;;;;;;;10.83;3.70;;;9.50;73.80;;;;;;955228;146;27349;-78
2022/01/30 05:27:14;;;;;;;12.90;3.40;;;9.50;74.00;;;;;;954324;145;27317;-78
2022/01/30 05:29:41;;;;;;;9.83;2.97;;;9.50;74.10;;;;;;953740;146;27382;-78
2022/01/30 05:32:08;;;;;;;9.67;3.10;;;9.50;74.20;;;;;;955508;146;27376;-78
2022/01/30 05:34:34;;;;;;;8.70;2.90;;;9.50;74.30;;;;;;953639;146;27305;-78
2022/01/30 05:37:01;;;;;;;7.80;2.67;;;9.50;74.30;;;;;;953332;146;27250;-78
2022/01/30 05:39:27;;;;;;;9.03;2.73;;;9.60;74.30;;;;;;954035;145;27707;-79
2022/01/30 05:41:55;;;;;;;7.93;2.87;;;9.60;74.30;;;;;;953042;146;27417;-78
2022/01/30 05:44:31;;;;;;;8.90;2.47;;;9.60;74.20;;;;;;954144;146;27454;-78
2022/01/30 05:46:52;;;;;;;5.37;2.50;;;9.60;74.20;;;;;;954329;147;27356;-79
2022/01/30 05:49:14;;;;;;;12.30;2.50;;;9.70;74.20;;;;;;952434;147;27257;-78
2022/01/30 05:51:40;;;;;;;8.23;2.87;;;9.70;74.10;;;;;;953631;146;27312;-78
2022/01/30 05:54:07;;;;;;;8.90;2.93;;;9.70;74.00;;;;;;953943;146;27402;-78
2022/01/30 05:56:37;;;;;;;8.13;2.60;;;9.70;74.00;;;;;;955508;145;27451;-78
2022/01/30 05:59:03;;;;;;;7.97;2.40;;;9.70;74.00;;;;;;954587;146;27393;-78
2022/01/30 06:01:29;;;;;;;6.70;2.47;;;9.80;74.00;;;;;;958562;145;27304;-78
2022/01/30 06:03:56;;;;;;;11.17;2.87;;;9.70;73.90;;;;;;961397;146;27217;-78
2022/01/30 06:06:23;;;;;;;6.07;2.00;;;9.70;73.80;;;;;;961749;146;27299;-78
2022/01/30 06:11:34;;;;;;;6.77;2.50;;;9.80;73.90;;;;;;960613;146;27314;-78
2022/01/30 06:14:01;;;;;;;5.80;2.30;;;9.70;73.80;;;;;;959613;146;27304;-79
2022/01/30 06:16:27;;;;;;;6.83;2.57;;;9.80;73.80;;;;;;961013;144;27408;-78
2022/01/30 06:18:54;;;;;;;8.47;2.77;;;9.80;73.70;;;;;;961282;146;27308;-79
2022/01/30 06:21:21;;;;;;;9.43;2.70;;;9.80;73.90;;;;;;962633;146;27312;-78
2022/01/30 06:23:47;;;;;;;9.00;2.23;;;9.70;73.70;;;;;;961352;146;27324;-78
2022/01/30 06:26:14;;;;;;;5.93;2.10;;;9.80;73.80;;;;;;959266;146;27278;-79
2022/01/30 06:28:40;;;;;;;7.57;2.77;;;9.80;73.80;;;;;;960083;146;27253;-78
2022/01/30 06:31:07;;;;;;;10.73;2.67;;;9.80;73.70;;;;;;958941;146;27254;-78
2022/01/30 06:33:34;;;;;;;8.23;2.67;;;9.70;73.60;;;;;;960470;146;27368;-78
2022/01/30 06:36:00;;;;;;;5.30;2.43;;;9.80;73.60;;;;;;959513;146;27408;-78
2022/01/30 06:38:27;;;;;;;9.40;2.60;;;9.80;73.50;;;;;;959999;146;27364;-78
2022/01/30 06:40:53;;;;;;;7.03;2.33;;;9.80;73.50;;;;;;960806;146;27360;-78
2022/01/30 06:43:20;;;;;;;6.97;3.10;;;9.80;73.40;;;;;;959626;146;27324;-78
2022/01/30 06:45:48;;;;;;;9.70;2.90;;;9.80;74.20;;;;;;963097;144;27367;-78
2022/01/30 06:48:13;;;;;;;6.50;1.93;;;9.70;73.10;;;;;;961215;146;27333;-78
2022/01/30 06:50:40;;;;;;;6.43;2.20;;;9.80;72.90;;;;;;958759;146;27336;-78
2022/01/30 06:53:06;;;;;;;7.87;2.13;;;9.70;72.90;;;;;;960424;146;27243;-78
2022/01/30 06:55:33;;;;;;;10.20;2.63;;;9.70;73.00;;;;;;961394;146;27344;-78
2022/01/30 06:57:59;;;;;;;11.87;2.30;;;9.70;73.10;;;;;;960425;146;27249;-78
2022/01/30 07:00:26;;;;;;;7.90;2.97;;;9.70;73.10;;;;;;960759;146;27738;-78
2022/01/30 07:02:53;;;;;;;9.03;2.33;;;9.70;73.20;;;;;;954270;146;27384;-78
2022/01/30 07:05:19;;;;;;;6.17;2.17;;;9.70;73.20;;;;;;954969;146;27328;-78
2022/01/30 07:07:46;;;;;;;9.27;2.90;;;9.70;73.30;;;;;;955041;146;27269;-78
2022/01/30 07:10:12;;;;;;;6.67;2.10;;;9.70;73.40;;;;;;953897;146;27276;-78
2022/01/30 07:12:39;;;;;;;5.57;1.90;;;9.70;73.60;;;;;;954699;146;27250;-78
2022/01/30 07:15:05;;;;;;;5.70;2.40;;;9.70;73.70;;;;;;955983;146;27389;-77
2022/01/30 07:17:32;;;;;;;11.57;2.43;;;9.70;74.40;;;;;;953251;145;27443;-78
2022/01/30 07:19:59;;;;;;;9.00;3.00;;;9.70;73.70;;;;;;953538;146;27336;-77
2022/01/30 07:22:27;;;;;;;6.70;2.63;;;9.60;73.70;;;;;;955424;146;27939;-78
2022/01/30 07:24:52;;;;;;;6.90;2.20;;;9.70;73.70;;;;;;952852;147;27292;-78
2022/01/30 07:27:18;;;;;;;15.33;3.10;;;9.70;73.50;;;;;;954407;146;27441;-78
2022/01/30 07:29:45;;;;;;;7.77;2.53;;;9.70;73.50;;;;;;952703;147;27500;-78
2022/01/30 07:32:12;;;;;;;6.90;2.40;;;9.60;73.40;;;;;;953240;147;27410;-79
2022/01/30 07:34:38;;;;;;;8.77;2.73;;;9.60;73.40;;;;;;954589;146;27370;-78
2022/01/30 07:37:05;;;;;;;6.87;2.40;;;9.60;73.40;;;;;;953822;147;27315;-78
2022/01/30 07:39:32;;;;;;;5.60;2.40;;;9.60;73.40;;;;;;954716;146;27388;-78
2022/01/30 07:41:58;;;;;;;6.10;2.40;;;9.60;73.50;;;;;;935114;149;27475;-78
2022/01/30 07:44:24;;;;;;;6.73;2.40;;;9.60;73.40;;;;;;936619;149;27394;-79
2022/01/30 07:46:51;;;;;;;5.30;2.07;;;9.60;73.40;;;;;;921085;152;27343;-78
2022/01/30 07:49:18;;;;;;;6.40;2.40;;;9.60;73.40;;;;;;938288;149;27438;-78
2022/01/30 07:51:44;;;;;;;7.77;2.53;;;9.70;73.90;;;;;;937594;149;27439;-78
2022/01/30 07:54:11;;;;;;;6.63;2.60;;;9.80;74.20;;;;;;937460;149;27482;-78
2022/01/30 07:56:37;;;;;;;6.83;2.50;;;9.90;74.50;;;;;;936323;149;28725;-78
2022/01/30 07:59:04;;;;;;;8.17;2.63;;;10.10;74.50;;;;;;936766;149;27376;-78
2022/01/30 08:01:31;;;;;;;8.47;2.47;;;10.20;74.60;;;;;;936280;149;27424;-78
2022/01/30 08:03:58;;;;;;;7.97;2.50;;;10.40;75.10;;;;;;935927;149;27395;-78
2022/01/30 08:06:24;;;;;;;4.00;2.23;;;10.70;75.40;;;;;;919893;152;27393;-78
2022/01/30 08:08:50;;;;;;;4.63;1.93;;;11.00;75.90;;;;;;936348;149;27410;-78
2022/01/30 08:11:17;;;;;;;8.00;2.67;;;11.40;76.30;;;;;;935913;149;27790;-78
2022/01/30 08:13:44;;;;;;;6.53;2.23;;;11.70;75.80;;;;;;925248;151;27296;-78
2022/01/30 08:16:10;;;;;;;6.20;2.20;;;12.00;74.60;;;;;;925121;151;27470;-79
2022/01/30 08:18:38;;;;;;;4.77;2.20;;;12.10;73.20;;;;;;919916;152;27530;-79
2022/01/30 08:21:04;;;;;;;7.53;2.60;;;12.20;72.60;;;;;;915573;152;27399;-78
2022/01/30 08:23:32;;;;;;;9.87;2.80;;;12.30;72.30;;;;;;937849;149;27566;-78
2022/01/30 08:25:56;;;;;;;6.63;2.17;;;12.30;71.50;;;;;;934471;150;27434;-78
2022/01/30 08:28:23;;;;;;;6.43;2.07;;;12.30;70.90;;;;;;936655;149;27441;-78
2022/01/30 08:30:50;;;;;;;7.63;2.70;;;12.30;70.70;;;;;;935726;149;27367;-78
2022/01/30 08:33:16;;;;;;;3.80;1.87;;;12.30;71.20;;;;;;920225;151;27400;-78
2022/01/30 08:35:43;;;;;;;7.57;2.40;;;12.30;70.60;;;;;;917562;153;27416;-79
2022/01/30 08:38:10;;;;;;;7.03;2.43;;;12.40;70.90;;;;;;939277;149;27315;-78
2022/01/30 08:40:36;;;;;;;6.93;2.13;;;12.40;71.00;;;;;;936663;149;27418;-78
2022/01/30 08:43:03;;;;;;;5.30;2.23;;;12.50;70.90;;;;;;936416;149;27277;-78
2022/01/30 08:45:29;;;;;;;7.20;2.70;;;12.60;70.40;;;;;;918703;152;27376;-78
2022/01/30 08:47:56;;;;;;;6.53;2.50;;;12.70;70.30;;;;;;936521;149;27388;-78
2022/01/30 08:50:22;;;;;;;5.83;2.27;;;12.70;70.10;;;;;;937344;149;27718;-78
2022/01/30 08:52:49;;;;;;;5.73;2.30;;;12.70;69.60;;;;;;939187;149;27348;-78
2022/01/30 08:55:15;;;;;;;7.13;2.17;;;12.60;68.80;;;;;;936469;149;27402;-78
2022/01/30 08:57:42;;;;;;;5.80;2.60;;;12.60;68.30;;;;;;935563;149;27364;-78
2022/01/30 09:00:09;;;;;;;5.40;2.50;;;12.40;67.90;;;;;;934895;150;27383;-78
2022/01/30 09:02:35;;;;;;;8.17;2.60;;;12.30;68.30;;;;;;934347;149;27676;-78
2022/01/30 09:05:02;;;;;;;6.70;2.30;;;12.20;68.50;;;;;;931210;150;27338;-78
2022/01/30 09:07:29;;;;;;;5.27;2.07;;;12.10;68.40;;;;;;930486;150;27347;-78
2022/01/30 09:09:55;;;;;;;4.10;2.00;;;12.00;68.20;;;;;;931326;152;27361;-78
2022/01/30 09:12:22;;;;;;;6.33;2.20;;;11.90;68.20;;;;;;932659;150;27389;-77
2022/01/30 09:14:48;;;;;;;5.63;2.43;;;11.80;68.20;;;;;;933367;150;27511;-77
2022/01/30 09:17:16;;;;;;;6.67;2.10;;;11.70;68.30;;;;;;931814;152;27307;-78
2022/01/30 09:19:42;;;;;;;3.97;1.83;;;11.60;68.20;;;;;;931643;151;27333;-77
2022/01/30 09:22:11;;;;;;;6.73;2.13;;;11.50;68.30;;;;;;934214;152;27320;-77
2022/01/30 09:24:38;;;;;;;6.17;2.30;;;11.50;68.50;;;;;;932011;150;27471;-77
2022/01/30 09:27:04;;;;;;;5.63;2.03;;;11.40;68.60;;;;;;932421;152;27466;-77
2022/01/30 09:29:31;;;;;;;5.20;2.20;;;11.40;68.80;;;;;;932649;152;27392;-78
2022/01/30 09:31:57;;;;;;;6.20;2.23;;;11.40;68.90;;;;;;930020;150;27358;-78
2022/01/30 09:34:24;;;;;;;4.80;1.90;;;11.30;69.50;;;;;;932334;150;27274;-78
2022/01/30 09:36:51;;;;;;;5.67;2.43;;;11.30;68.60;;;;;;929999;150;27436;-78
2022/01/30 09:39:17;;;;;;;7.20;2.23;;;11.30;68.70;;;;;;930018;150;27476;-78
2022/01/30 09:41:44;;;;;;;5.07;2.17;;;11.30;68.50;;;;;;932177;151;27305;-78
2022/01/30 09:44:10;;;;;;;6.00;2.30;;;11.30;68.20;;;;;;931760;152;27703;-78
2022/01/30 09:46:40;;;;;;;7.23;2.23;;;11.30;68.30;;;;;;928710;151;27322;-78
2022/01/30 09:49:06;;;;;;;7.40;2.20;;;11.20;68.40;;;;;;931928;151;27446;-78
2022/01/30 09:51:34;;;;;;;7.27;2.30;;;11.20;67.50;;;;;;930948;152;27475;-78
2022/01/30 09:53:59;;;;;;;6.07;2.37;;;11.20;68.50;;;;;;931270;150;27329;-78
2022/01/30 09:56:26;;;;;;;5.10;2.53;;;11.20;68.20;;;;;;933018;151;27351;-78
2022/01/30 09:58:52;;;;;;;5.57;2.43;;;11.20;68.00;;;;;;928370;151;27346;-77
2022/01/30 10:01:19;;;;;;;3.97;2.07;;;11.20;67.90;;;;;;932593;150;27533;-78
2022/01/30 10:03:48;;;;;;;9.47;2.67;;;11.20;67.70;;;;;;954477;146;27355;-78
2022/01/30 10:06:18;;;;;;;5.07;2.57;;;11.20;67.80;;;;;;959943;146;27326;-79
2022/01/30 10:08:46;;;;;;;6.73;2.50;;;11.20;67.80;;;;;;958432;146;27285;-78
2022/01/30 10:11:27;;;;;;;7.30;2.10;;;11.20;67.40;;;;;;962062;146;27381;-78
2022/01/30 10:13:34;;;;;;;8.70;2.63;;;11.20;67.50;;;;;;957216;146;27292;-78
2022/01/30 10:16:03;;;;;;;8.83;2.93;;;11.20;67.40;;;;;;959148;146;27354;-78
2022/01/30 10:18:32;;;;;;;9.07;2.50;;;11.20;67.20;;;;;;960024;146;27432;-78
2022/01/30 10:20:54;;;;;;;5.53;2.47;;;11.10;67.20;;;;;;961043;146;27352;-78
2022/01/30 10:23:21;;;;;;;4.67;2.23;;;11.10;67.10;;;;;;959412;146;27261;-78
2022/01/30 10:25:47;;;;;;;5.80;2.23;;;11.10;67.10;;;;;;957817;146;27337;-78
2022/01/30 10:28:17;;;;;;;6.07;2.67;;;11.10;66.70;;;;;;961413;146;27348;-78
2022/01/30 10:30:46;;;;;;;10.27;2.90;;;11.10;66.70;;;;;;959666;146;27296;-78
2022/01/30 10:33:13;;;;;;;8.63;2.63;;;11.10;66.60;;;;;;960207;146;27348;-78
2022/01/30 10:35:48;;;;;;;10.57;2.97;;;11.10;66.50;;;;;;958379;146;27283;-78
2022/01/30 10:38:24;;;;;;;7.20;2.67;;;11.20;66.50;;;;;;958155;146;27422;-78
2022/01/30 10:40:56;;;;;;;5.93;2.47;;;11.20;66.70;;;;;;959037;146;27430;-79
2022/01/30 10:43:23;;;;;;;5.13;2.37;;;11.20;66.80;;;;;;960840;146;27355;-78
2022/01/30 10:45:49;;;;;;;9.80;2.57;;;11.20;66.90;;;;;;957413;146;27307;-78
2022/01/30 10:48:21;;;;;;;8.13;2.60;;;11.20;66.90;;;;;;959499;146;27303;-78
2022/01/30 10:50:47;;;;;;;7.33;2.10;;;11.20;67.00;;;;;;957784;146;27320;-78
2022/01/30 10:53:17;;;;;;;6.87;2.43;;;11.30;66.90;;;;;;958534;146;27395;-78
2022/01/30 10:55:45;;;;;;;7.67;2.43;;;11.40;66.80;;;;;;958350;146;27777;-78
2022/01/30 10:58:13;;;;;;;7.90;2.50;;;11.40;66.10;;;;;;956400;146;27301;-78
2022/01/30 11:00:40;;;;;;;8.77;2.40;;;11.50;66.90;;;;;;959602;146;27431;-79
2022/01/30 11:03:07;;;;;;;8.00;2.63;;;11.50;66.80;;;;;;959219;146;27329;-78
2022/01/30 11:05:34;;;;;;;6.03;2.40;;;11.60;66.70;;;;;;959339;146;27367;-79
2022/01/30 11:08:00;;;;;;;8.00;2.40;;;11.70;66.80;;;;;;955898;146;27762;-79
2022/01/30 11:10:27;;;;;;;9.83;3.33;;;11.70;66.30;;;;;;959100;146;27443;-78
2022/01/30 11:13:08;;;;;;;7.93;2.70;;;11.80;66.30;;;;;;958027;146;27331;-78
2022/01/30 11:15:36;;;;;;;7.27;2.80;;;11.80;66.10;;;;;;957982;146;27854;-79
2022/01/30 11:18:05;;;;;;;7.00;2.40;;;11.90;66.20;;;;;;958745;146;27315;-78
2022/01/30 11:20:28;;;;;;;8.10;3.17;;;11.90;66.00;;;;;;956235;146;27334;-79
2022/01/30 11:22:54;;;;;;;8.20;2.37;;;12.00;65.90;;;;;;959263;146;27258;-78
2022/01/30 11:25:21;;;;;;;9.23;3.10;;;12.00;65.80;;;;;;958585;146;27478;-78
2022/01/30 11:27:48;;;;;;;10.43;3.30;;;12.10;65.80;;;;;;959427;146;27419;-79
2022/01/30 11:30:17;;;;;;;8.07;2.97;;;12.20;65.70;;;;;;958695;145;27308;-79
2022/01/30 11:32:41;;;;;;;8.23;2.83;;;12.20;65.40;;;;;;957226;146;27304;-78
2022/01/30 11:35:07;;;;;;;4.90;2.53;;;12.30;65.40;;;;;;958546;145;27363;-78
2022/01/30 11:37:36;;;;;;;9.07;2.70;;;12.30;64.90;;;;;;958077;145;27348;-78
2022/01/30 11:40:01;;;;;;;10.27;2.70;;;12.30;64.60;;;;;;957565;145;28330;-78
2022/01/30 11:42:27;;;;;;;10.40;3.43;;;12.30;64.40;;;;;;954791;146;27330;-78
2022/01/30 11:45:05;;;;;;;8.97;3.03;;;12.30;64.30;;;;;;959014;146;27418;-78
2022/01/30 11:47:51;;;;;;;5.90;2.33;;;12.30;64.20;;;;;;957250;146;27336;-79
2022/01/30 11:50:20;;;;;;;10.00;3.10;;;12.30;64.30;;;;;;958966;146;27387;-78
2022/01/30 11:52:49;;;;;;;4.90;2.20;;;12.30;63.60;;;;;;958306;145;27338;-79
2022/01/30 11:55:40;;;;;;;7.07;2.80;;;12.20;63.60;;;;;;956987;145;27444;-78
2022/01/30 11:58:07;;;;;;;9.33;2.77;;;12.20;63.50;;;;;;960052;146;27312;-79
2022/01/30 12:00:36;;;;;;;9.53;2.67;;;12.10;63.40;;;;;;959460;146;27454;-78
2022/01/30 12:03:27;;;;;;;9.10;3.23;;;12.00;63.40;;;;;;957689;146;27316;-78
2022/01/30 12:05:53;;;;;;;9.47;2.60;;;12.00;63.50;;;;;;958926;146;27383;-79
2022/01/30 12:08:53;;;;;;;11.73;3.70;;;11.90;63.80;;;;;;958822;146;27339;-78
2022/01/30 12:11:39;;;;;;;7.00;2.20;;;11.90;63.60;;;;;;958271;148;27374;-79
2022/01/30 12:14:02;;;;;;;8.27;2.70;;;11.90;63.80;;;;;;956822;147;28633;-78
2022/01/30 12:16:51;;;;;;;9.03;3.17;;;11.90;63.80;;;;;;956934;147;27389;-78
2022/01/30 12:19:19;;;;;;;7.67;2.97;;;11.90;63.60;;;;;;939339;149;27277;-79
2022/01/30 12:21:45;;;;;;;9.40;2.83;;;11.80;63.60;;;;;;922485;151;27440;-78
2022/01/30 12:24:27;;;;;;;10.33;3.20;;;11.80;63.50;;;;;;926177;151;27392;-78
2022/01/30 12:26:58;;;;;;;7.10;2.90;;;11.80;63.60;;;;;;937458;149;27935;-80
2022/01/30 12:29:41;;;;;;;7.33;2.83;;;11.80;63.60;;;;;;925290;151;27399;-80
2022/01/30 12:32:22;;;;;;;6.43;2.63;;;11.80;63.70;;;;;;924722;151;27379;-80
2022/01/30 12:34:55;;;;;;;7.87;2.30;;;11.80;63.00;;;;;;917343;155;27515;-80
2022/01/30 12:37:22;;;;;;;9.53;2.80;;;11.80;63.80;;;;;;924479;151;27518;-80
2022/01/30 12:39:48;;;;;;;9.50;2.93;;;11.80;63.80;;;;;;924562;151;27418;-79
2022/01/30 12:42:15;;;;;;;10.67;2.90;;;11.80;63.60;;;;;;933925;150;27439;-79
2022/01/30 12:44:41;;;;;;;6.50;2.60;;;11.80;63.40;;;;;;935405;149;27437;-80
2022/01/30 12:47:08;;;;;;;8.73;3.17;;;11.90;63.40;;;;;;935903;149;27463;-80
2022/01/30 12:49:43;;;;;;;8.00;3.07;;;11.80;63.20;;;;;;934660;152;27374;-80
2022/01/30 12:52:04;;;;;;;5.53;2.50;;;11.80;63.30;;;;;;936248;152;27487;-79
2022/01/30 12:54:29;;;;;;;8.10;2.53;;;11.80;62.90;;;;;;936829;152;27326;-80
2022/01/30 12:56:54;;;;;;;7.00;2.70;;;11.80;63.00;;;;;;935541;150;27363;-80
2022/01/30 12:59:23;;;;;;;8.87;2.90;;;11.70;62.80;;;;;;936456;152;27410;-80
2022/01/30 13:01:48;;;;;;;7.27;3.40;;;11.60;62.80;;;;;;937573;150;27758;-80
2022/01/30 13:04:17;;;;;;;7.80;3.57;;;11.60;63.00;;;;;;937654;149;27374;-80
2022/01/30 13:06:47;;;;;;;10.20;3.83;;;11.60;63.20;;;;;;928260;151;27368;-80
2022/01/30 13:09:13;;;;;;;8.83;3.43;;;11.50;63.20;;;;;;939278;148;27372;-80
2022/01/30 13:11:40;;;;;;;7.00;2.97;;;11.50;63.20;;;;;;941727;148;27438;-80
2022/01/30 13:14:06;;;;;;;6.60;3.10;;;11.50;63.20;;;;;;942733;148;27406;-80
2022/01/30 13:16:36;;;;;;;9.07;3.00;;;11.50;63.40;;;;;;942067;148;28061;-80
2022/01/30 13:19:02;;;;;;;7.17;3.00;;;11.40;63.60;;;;;;940410;148;27321;-80
2022/01/30 13:21:29;;;;;;;11.93;3.10;;;11.40;63.60;;;;;;940363;148;27368;-79
2022/01/30 13:23:55;;;;;;;10.80;3.57;;;11.50;63.80;;;;;;941228;148;27449;-80
2022/01/30 13:26:28;;;;;;;8.80;2.87;;;11.50;63.60;;;;;;942410;148;27437;-79
2022/01/30 13:28:54;;;;;;;9.37;2.73;;;11.50;63.50;;;;;;943454;148;28352;-80
2022/01/30 13:31:21;;;;;;;9.00;3.27;;;11.60;63.50;;;;;;942518;148;27359;-79
2022/01/30 13:33:50;;;;;;;6.53;2.57;;;11.60;63.40;;;;;;942997;148;27448;-80
2022/01/30 13:36:22;;;;;;;8.60;2.93;;;11.70;63.30;;;;;;940453;146;27340;-80
2022/01/30 13:38:49;;;;;;;9.93;3.03;;;11.70;63.10;;;;;;961258;145;27370;-80